Time;durP1;ratioP1;P1;durP2;ratioP2;P2;SDS_P1;SDS_P2;PMS_P1;PMS_P2;Temp;Humidity;BMP_temperature;BMP_pressure;BME280_temperature;BME280_humidity;BME280_pressure;Samples;Min_cycle;Max_cycle;Signal;HPM_P1;HPM_P2
2022/01/03 00:00:39;;;;;;;2.83;1.05;;;12.80;99.90;;;;;;5082276;28;20188;-66
2022/01/03 00:03:08;;;;;;;2.45;1.20;;;12.70;99.90;;;;;;5092395;28;20265;-67
2022/01/03 00:05:34;;;;;;;1.73;1.00;;;12.70;99.90;;;;;;5092820;28;20184;-66
2022/01/03 00:07:59;;;;;;;2.13;0.93;;;12.70;99.90;;;;;;5092938;28;20216;-67
2022/01/03 00:10:25;;;;;;;4.43;1.48;;;12.70;99.90;;;;;;5091708;28;20188;-67
2022/01/03 00:12:52;;;;;;;3.38;1.23;;;12.70;99.90;;;;;;5091260;28;20176;-67
2022/01/03 00:15:18;;;;;;;5.40;1.10;;;12.70;99.90;;;;;;5092223;28;20620;-66
2022/01/03 00:17:44;;;;;;;6.57;1.90;;;12.70;99.90;;;;;;5092236;28;20234;-67
2022/01/03 00:20:11;;;;;;;3.08;1.25;;;12.70;99.90;;;;;;5092365;28;20172;-67
2022/01/03 00:22:46;;;;;;;4.68;1.20;;;12.70;99.90;;;;;;5092451;28;20322;-67
2022/01/03 00:25:20;;;;;;;2.83;1.40;;;12.70;99.90;;;;;;5092298;28;20250;-66
2022/01/03 00:27:49;;;;;;;4.47;1.10;;;12.70;99.90;;;;;;5092013;28;20581;-66
2022/01/03 00:30:18;;;;;;;3.08;1.30;;;12.60;99.90;;;;;;5073071;28;20176;-68
2022/01/03 00:32:43;;;;;;;3.30;1.08;;;12.70;99.90;;;;;;5097496;28;20203;-67
2022/01/03 00:35:09;;;;;;;3.42;1.33;;;12.70;99.90;;;;;;5102599;28;20276;-66
2022/01/03 00:37:35;;;;;;;2.85;1.25;;;12.70;99.90;;;;;;5077805;28;20188;-67
2022/01/03 00:40:02;;;;;;;6.45;1.50;;;12.70;99.90;;;;;;5081878;28;20192;-66
2022/01/03 00:42:29;;;;;;;3.55;1.10;;;12.70;99.90;;;;;;5088453;28;20242;-66
2022/01/03 00:44:54;;;;;;;3.40;1.05;;;12.70;99.90;;;;;;5091407;28;20183;-66
2022/01/03 00:47:20;;;;;;;4.55;1.45;;;12.60;99.90;;;;;;5091776;28;20227;-66
2022/01/03 00:49:46;;;;;;;2.88;1.33;;;12.70;99.90;;;;;;5091673;28;20590;-67
2022/01/03 00:52:12;;;;;;;2.67;0.90;;;12.60;99.90;;;;;;5091732;28;20213;-66
2022/01/03 00:54:38;;;;;;;6.97;1.60;;;12.60;99.90;;;;;;5091295;28;20643;-67
2022/01/03 00:57:12;;;;;;;4.15;1.30;;;12.60;99.90;;;;;;5091428;28;20263;-65
2022/01/03 00:59:43;;;;;;;4.63;1.20;;;12.60;99.90;;;;;;5091208;28;20196;-66
2022/01/03 01:02:11;;;;;;;6.95;1.60;;;12.60;99.90;;;;;;5091082;28;20225;-66
2022/01/03 01:04:37;;;;;;;5.25;1.42;;;12.50;99.90;;;;;;5091720;28;20176;-66
2022/01/03 01:07:06;;;;;;;4.68;1.48;;;12.50;99.90;;;;;;5091550;28;20214;-66
2022/01/03 01:09:34;;;;;;;3.33;1.30;;;12.50;99.90;;;;;;5091284;28;20191;-66
2022/01/03 01:12:00;;;;;;;6.15;1.55;;;12.50;99.90;;;;;;5089931;28;20183;-66
2022/01/03 01:14:27;;;;;;;5.00;1.30;;;12.50;99.90;;;;;;5091880;28;20176;-66
2022/01/03 01:16:53;;;;;;;6.03;1.38;;;12.40;99.90;;;;;;5091678;28;20176;-66
2022/01/03 01:19:20;;;;;;;4.80;1.38;;;12.40;99.90;;;;;;5091426;28;20264;-67
2022/01/03 01:21:48;;;;;;;5.15;1.33;;;12.40;99.90;;;;;;5092649;28;20271;-67
2022/01/03 01:24:15;;;;;;;6.13;1.30;;;12.40;99.90;;;;;;5095386;28;20535;-66
2022/01/03 01:29:27;;;;;;;5.32;1.88;;;12.20;99.90;;;;;;5086033;28;20207;-67
2022/01/03 01:31:54;;;;;;;4.85;1.55;;;12.20;99.90;;;;;;5093733;28;20176;-67
2022/01/03 01:34:23;;;;;;;1.42;1.15;;;12.20;99.90;;;;;;5095060;28;20192;-67
2022/01/03 01:36:52;;;;;;;5.57;1.38;;;12.20;99.90;;;;;;5095270;28;20180;-66
2022/01/03 01:39:20;;;;;;;5.90;1.55;;;12.20;99.90;;;;;;5094025;28;20195;-67
2022/01/03 01:41:45;;;;;;;3.25;1.20;;;12.10;99.90;;;;;;5094901;28;20286;-67
2022/01/03 01:44:13;;;;;;;4.00;1.10;;;12.10;99.90;;;;;;5094614;28;20180;-67
2022/01/03 01:46:52;;;;;;;7.72;1.50;;;12.10;99.90;;;;;;5095751;28;20188;-67
2022/01/03 01:49:20;;;;;;;4.72;1.00;;;12.10;99.90;;;;;;5091931;28;20215;-67
2022/01/03 01:51:48;;;;;;;4.07;1.02;;;12.20;99.90;;;;;;5095157;28;20261;-67
2022/01/03 01:54:17;;;;;;;2.20;0.98;;;12.20;99.90;;;;;;5095340;28;20537;-66
2022/01/03 01:57:02;;;;;;;6.53;1.27;;;12.20;99.90;;;;;;5094996;28;20180;-66
2022/01/03 01:59:53;;;;;;;4.28;1.20;;;12.20;99.90;;;;;;5094608;28;20605;-66
2022/01/03 02:02:30;;;;;;;9.23;1.30;;;12.20;99.90;;;;;;5094920;28;20172;-67
2022/01/03 02:05:07;;;;;;;5.70;1.48;;;12.20;99.90;;;;;;5095047;28;20271;-67
2022/01/03 02:08:10;;;;;;;6.95;1.38;;;12.20;99.90;;;;;;5078823;28;20203;-67
2022/01/03 02:10:55;;;;;;;6.70;1.30;;;12.30;99.90;;;;;;5095047;28;20199;-67
2022/01/03 02:13:22;;;;;;;6.18;1.42;;;12.30;99.90;;;;;;5082544;28;20203;-67
2022/01/03 02:15:57;;;;;;;4.15;1.02;;;12.30;99.90;;;;;;5095045;28;20276;-67
2022/01/03 02:18:25;;;;;;;5.25;1.42;;;12.30;99.90;;;;;;5094236;28;20188;-67
2022/01/03 02:20:51;;;;;;;2.63;0.98;;;12.30;99.90;;;;;;5093238;28;20175;-67
2022/01/03 02:23:16;;;;;;;5.38;1.00;;;12.30;99.90;;;;;;5094591;28;20187;-67
2022/01/03 02:25:42;;;;;;;2.75;1.17;;;12.30;99.90;;;;;;5094398;28;20658;-67
2022/01/03 02:28:08;;;;;;;4.57;1.20;;;12.30;99.90;;;;;;5094206;28;20260;-67
2022/01/03 02:30:35;;;;;;;3.67;1.30;;;12.20;99.90;;;;;;5094722;28;20175;-67
2022/01/03 02:33:01;;;;;;;4.50;1.20;;;12.20;99.90;;;;;;5093686;28;20184;-67
2022/01/03 02:35:27;;;;;;;4.60;1.20;;;12.20;99.90;;;;;;5094202;28;20186;-67
2022/01/03 02:37:54;;;;;;;4.22;1.00;;;12.10;99.90;;;;;;5093729;28;20452;-67
2022/01/03 02:40:21;;;;;;;2.78;0.98;;;12.10;99.90;;;;;;5093954;28;20251;-67
2022/01/03 02:42:48;;;;;;;3.05;0.85;;;12.10;99.90;;;;;;5094637;28;20194;-67
2022/01/03 02:45:22;;;;;;;9.48;1.75;;;12.10;99.90;;;;;;5093949;28;20176;-67
2022/01/03 02:47:54;;;;;;;5.07;1.25;;;12.10;99.90;;;;;;5093685;28;20202;-67
2022/01/03 02:50:22;;;;;;;6.88;1.65;;;12.20;99.90;;;;;;5094374;28;20604;-67
2022/01/03 02:52:49;;;;;;;3.92;1.30;;;12.20;99.90;;;;;;5093782;28;20176;-66
2022/01/03 02:55:16;;;;;;;4.65;1.45;;;12.20;99.90;;;;;;5091575;28;20176;-67
2022/01/03 02:57:54;;;;;;;7.82;1.73;;;12.10;99.90;;;;;;5078510;28;20242;-67
2022/01/03 03:00:23;;;;;;;4.20;1.85;;;12.10;99.90;;;;;;5094098;28;20176;-67
2022/01/03 03:02:49;;;;;;;4.85;1.17;;;12.10;99.90;;;;;;5092400;28;20179;-67
2022/01/03 03:05:15;;;;;;;8.05;1.17;;;12.10;99.90;;;;;;5093626;28;20180;-67
2022/01/03 03:07:41;;;;;;;5.20;1.35;;;12.10;99.90;;;;;;5094214;28;20215;-67
2022/01/03 03:10:10;;;;;;;2.72;1.13;;;12.10;99.90;;;;;;5093384;28;20180;-67
2022/01/03 03:12:36;;;;;;;5.53;1.20;;;12.10;99.90;;;;;;5093232;28;20176;-67
2022/01/03 03:15:03;;;;;;;6.85;1.50;;;12.10;99.90;;;;;;5093976;28;20184;-66
2022/01/03 03:17:29;;;;;;;5.18;1.58;;;12.10;99.90;;;;;;5093327;28;20179;-67
2022/01/03 03:19:56;;;;;;;4.20;1.50;;;12.10;99.90;;;;;;5093891;28;20176;-67
2022/01/03 03:22:23;;;;;;;7.90;1.25;;;12.00;99.90;;;;;;5093129;28;20180;-67
2022/01/03 03:24:50;;;;;;;5.43;1.40;;;12.00;99.90;;;;;;5092211;28;20532;-68
2022/01/03 03:27:16;;;;;;;6.38;1.25;;;11.90;99.90;;;;;;5093349;28;20187;-67
2022/01/03 03:29:47;;;;;;;4.95;1.35;;;11.90;99.90;;;;;;5093102;28;20176;-67
2022/01/03 03:32:13;;;;;;;5.65;1.33;;;11.90;99.90;;;;;;5092724;28;20176;-67
2022/01/03 03:34:38;;;;;;;8.35;1.30;;;11.90;99.90;;;;;;5093125;28;20178;-67
2022/01/03 03:37:04;;;;;;;5.32;1.33;;;11.80;99.90;;;;;;5093232;28;20184;-67
2022/01/03 03:39:31;;;;;;;3.65;1.02;;;11.80;99.90;;;;;;5092553;28;20191;-67
2022/01/03 03:41:57;;;;;;;6.20;1.40;;;11.80;99.90;;;;;;5093252;28;20214;-67
2022/01/03 03:44:22;;;;;;;2.10;1.10;;;11.80;99.90;;;;;;5092064;28;20207;-67
2022/01/03 03:46:48;;;;;;;4.40;1.40;;;11.70;99.90;;;;;;5093132;28;20173;-67
2022/01/03 03:49:13;;;;;;;3.75;1.30;;;11.70;99.90;;;;;;5092549;28;20208;-67
2022/01/03 03:51:39;;;;;;;5.72;1.92;;;11.70;99.90;;;;;;5092881;28;20238;-67
2022/01/03 03:54:04;;;;;;;6.10;1.17;;;11.50;99.90;;;;;;5092919;28;20176;-67
2022/01/03 03:56:30;;;;;;;10.48;1.50;;;11.30;99.90;;;;;;5092057;28;20569;-67
2022/01/03 03:58:56;;;;;;;5.45;1.08;;;11.00;99.90;;;;;;5093025;28;20224;-67
2022/01/03 04:01:22;;;;;;;6.90;1.25;;;10.90;99.90;;;;;;5091253;28;20176;-68
2022/01/03 04:03:47;;;;;;;6.28;1.23;;;10.80;99.90;;;;;;5092463;28;20268;-67
2022/01/03 04:06:13;;;;;;;6.65;1.15;;;10.60;99.90;;;;;;5092757;28;20251;-67
2022/01/03 04:08:38;;;;;;;3.72;1.45;;;10.50;99.90;;;;;;5092320;28;20223;-67
2022/01/03 04:11:04;;;;;;;4.43;1.20;;;10.30;99.90;;;;;;5091968;28;20199;-66
2022/01/03 04:13:29;;;;;;;6.50;1.60;;;10.20;99.90;;;;;;5092819;28;20619;-66
2022/01/03 04:15:55;;;;;;;11.07;2.00;;;10.00;99.90;;;;;;5092231;28;20183;-66
2022/01/03 04:18:20;;;;;;;2.88;1.42;;;10.00;99.90;;;;;;5092161;28;20184;-66
2022/01/03 04:20:46;;;;;;;7.95;1.67;;;10.00;99.90;;;;;;5092514;28;20271;-66
2022/01/03 04:23:12;;;;;;;6.50;1.77;;;10.00;99.90;;;;;;5092680;28;20306;-66
2022/01/03 04:25:38;;;;;;;7.82;1.40;;;10.00;99.90;;;;;;5092164;28;20191;-66
2022/01/03 04:28:04;;;;;;;6.57;1.40;;;10.10;99.90;;;;;;5091813;28;20215;-68
2022/01/03 04:30:30;;;;;;;6.28;1.90;;;10.10;99.90;;;;;;5092616;28;20175;-66
2022/01/03 04:32:56;;;;;;;2.67;1.27;;;10.10;99.90;;;;;;5092052;28;20183;-66
2022/01/03 04:35:21;;;;;;;6.22;1.40;;;10.20;99.90;;;;;;5091712;28;20184;-67
2022/01/03 04:37:47;;;;;;;10.23;1.63;;;10.20;99.90;;;;;;5091747;28;20204;-66
2022/01/03 04:40:13;;;;;;;2.15;1.38;;;10.20;99.90;;;;;;5091644;28;20199;-66
2022/01/03 04:42:38;;;;;;;8.00;1.77;;;10.20;99.90;;;;;;5090956;28;20186;-66
2022/01/03 04:45:04;;;;;;;9.25;1.33;;;10.30;99.90;;;;;;5092030;28;20188;-66
2022/01/03 04:47:30;;;;;;;5.32;1.85;;;10.30;99.90;;;;;;5091508;28;20208;-66
2022/01/03 04:49:55;;;;;;;6.75;1.30;;;10.30;99.90;;;;;;5091714;28;20255;-66
2022/01/03 04:52:21;;;;;;;4.95;1.13;;;10.40;99.90;;;;;;5092020;28;20255;-67
2022/01/03 04:54:46;;;;;;;5.47;1.38;;;10.40;99.90;;;;;;5091887;28;20653;-66
2022/01/03 04:57:12;;;;;;;6.65;1.10;;;10.40;99.90;;;;;;5091488;28;20184;-66
2022/01/03 04:59:37;;;;;;;7.25;1.88;;;10.40;99.90;;;;;;5091702;28;20188;-66
2022/01/03 05:02:04;;;;;;;3.05;1.25;;;10.40;99.90;;;;;;5091817;28;20184;-66
2022/01/03 05:04:30;;;;;;;5.15;1.20;;;10.40;99.90;;;;;;5091658;28;20183;-67
2022/01/03 05:06:55;;;;;;;3.95;0.90;;;10.40;99.90;;;;;;5091658;28;20183;-66
2022/01/03 05:09:21;;;;;;;4.65;1.00;;;10.40;99.90;;;;;;5091672;28;20230;-67
2022/01/03 05:11:46;;;;;;;3.38;0.93;;;10.30;99.90;;;;;;5091133;28;20221;-66
2022/01/03 05:14:12;;;;;;;1.40;0.88;;;10.30;99.90;;;;;;5091532;28;20199;-66
2022/01/03 05:16:37;;;;;;;4.38;0.80;;;10.30;99.90;;;;;;5091557;28;20192;-67
2022/01/03 05:19:03;;;;;;;3.08;1.02;;;10.30;99.90;;;;;;5091687;28;20172;-66
2022/01/03 05:21:29;;;;;;;3.65;0.77;;;10.30;99.90;;;;;;5091248;28;20631;-66
2022/01/03 05:23:54;;;;;;;7.35;1.50;;;10.20;99.90;;;;;;5091856;28;20184;-67
2022/01/03 05:26:20;;;;;;;4.57;1.15;;;10.20;99.90;;;;;;5091569;28;20550;-67
2022/01/03 05:28:47;;;;;;;4.60;1.05;;;10.20;99.90;;;;;;5091072;28;20251;-66
2022/01/03 05:31:13;;;;;;;4.78;1.40;;;10.10;99.90;;;;;;5079436;28;20259;-66
2022/01/03 05:33:39;;;;;;;2.83;0.82;;;10.10;99.90;;;;;;5091597;28;20650;-67
2022/01/03 05:36:05;;;;;;;8.50;1.38;;;10.10;99.90;;;;;;5091102;28;20200;-66
2022/01/03 05:38:31;;;;;;;7.30;1.67;;;10.00;99.90;;;;;;5089788;28;20552;-66
2022/01/03 05:40:57;;;;;;;7.47;1.20;;;10.00;99.90;;;;;;5089465;28;20180;-66
2022/01/03 05:43:22;;;;;;;3.35;1.13;;;10.00;99.90;;;;;;5071271;28;20177;-67
2022/01/03 05:45:48;;;;;;;5.43;1.48;;;10.10;99.90;;;;;;5083251;28;20631;-66
2022/01/03 05:48:14;;;;;;;6.03;1.17;;;10.10;99.90;;;;;;5090455;28;20207;-66
2022/01/03 05:50:39;;;;;;;7.38;1.20;;;10.10;99.90;;;;;;5091857;28;20176;-66
2022/01/03 05:53:05;;;;;;;5.28;1.27;;;10.10;99.90;;;;;;5090707;28;20636;-66
2022/01/03 05:55:30;;;;;;;3.03;1.27;;;10.10;99.90;;;;;;5084105;28;20238;-66
2022/01/03 05:57:56;;;;;;;8.20;1.60;;;10.10;99.90;;;;;;5071338;28;20213;-66
2022/01/03 06:00:24;;;;;;;6.45;1.42;;;10.10;99.90;;;;;;5088795;28;20250;-67
2022/01/03 06:02:54;;;;;;;8.77;1.35;;;10.10;99.90;;;;;;5089932;28;20180;-66
2022/01/03 06:05:33;;;;;;;4.97;1.20;;;10.10;99.90;;;;;;5091438;28;20259;-66
2022/01/03 06:07:59;;;;;;;8.43;1.42;;;10.10;99.90;;;;;;5092741;28;20231;-66
2022/01/03 06:10:24;;;;;;;7.13;1.65;;;10.10;99.90;;;;;;5094149;28;20222;-66
2022/01/03 06:12:50;;;;;;;8.60;1.50;;;10.10;99.90;;;;;;5094887;28;20208;-66
2022/01/03 06:15:16;;;;;;;7.85;1.67;;;10.10;99.90;;;;;;5094363;28;20650;-66
2022/01/03 06:17:43;;;;;;;6.30;1.52;;;10.10;99.90;;;;;;5094218;28;20192;-66
2022/01/03 06:20:09;;;;;;;7.78;1.77;;;10.10;99.90;;;;;;5094514;28;20635;-66
2022/01/03 06:22:35;;;;;;;8.25;1.75;;;10.10;99.90;;;;;;5076073;28;20255;-66
2022/01/03 06:25:00;;;;;;;8.75;1.75;;;10.10;99.90;;;;;;5087562;28;20194;-66
2022/01/03 06:27:26;;;;;;;6.97;1.55;;;10.10;99.90;;;;;;5093111;28;20208;-66
2022/01/03 06:29:51;;;;;;;6.97;1.40;;;10.10;99.90;;;;;;5089857;28;20184;-66
2022/01/03 06:32:17;;;;;;;4.53;1.30;;;10.10;99.90;;;;;;5092784;28;20268;-66
2022/01/03 06:34:42;;;;;;;5.05;1.17;;;10.10;99.90;;;;;;5094613;28;20632;-66
2022/01/03 06:37:08;;;;;;;7.53;1.80;;;10.10;99.90;;;;;;5093747;28;20191;-66
2022/01/03 06:39:33;;;;;;;5.85;1.60;;;10.10;99.90;;;;;;5093724;28;20206;-66
2022/01/03 06:41:59;;;;;;;7.03;2.10;;;10.10;99.90;;;;;;5093977;28;20208;-66
2022/01/03 06:44:24;;;;;;;4.90;1.33;;;10.10;99.90;;;;;;5093441;28;20180;-65
2022/01/03 06:46:51;;;;;;;6.28;1.67;;;10.10;99.90;;;;;;5093913;28;20200;-66
2022/01/03 06:49:17;;;;;;;4.18;1.52;;;10.10;99.90;;;;;;5093916;28;20270;-66
2022/01/03 06:51:42;;;;;;;7.35;1.80;;;10.10;99.90;;;;;;5080353;28;20656;-66
2022/01/03 06:54:12;;;;;;;9.23;1.85;;;10.10;99.90;;;;;;5090589;28;20229;-66
2022/01/03 06:56:39;;;;;;;8.60;1.60;;;10.10;99.90;;;;;;5093704;28;20230;-66
2022/01/03 06:59:04;;;;;;;6.65;1.60;;;10.10;99.90;;;;;;5093707;28;20304;-65
2022/01/03 07:01:31;;;;;;;6.30;1.40;;;10.10;99.90;;;;;;5093776;28;20291;-66
2022/01/03 07:03:57;;;;;;;6.00;1.48;;;10.10;99.90;;;;;;5093679;28;20593;-66
2022/01/03 07:06:22;;;;;;;6.78;1.40;;;10.10;99.90;;;;;;5093558;28;20530;-66
2022/01/03 07:08:48;;;;;;;7.05;1.48;;;10.10;99.90;;;;;;5093707;28;20215;-67
2022/01/03 07:11:14;;;;;;;5.43;1.52;;;10.10;99.90;;;;;;5093810;28;20254;-66
2022/01/03 07:13:46;;;;;;;3.60;1.45;;;10.00;99.90;;;;;;5092880;28;20184;-67
2022/01/03 07:18:56;;;;;;;5.18;1.13;;;10.10;99.90;;;;;;5074057;28;20528;-66
2022/01/03 07:21:23;;;;;;;6.88;1.60;;;10.10;99.90;;;;;;5086133;28;20183;-66
2022/01/03 07:23:48;;;;;;;6.70;1.65;;;10.10;99.90;;;;;;5093262;28;20184;-66
2022/01/03 07:26:14;;;;;;;7.43;1.70;;;10.10;99.90;;;;;;5093488;28;20175;-66
2022/01/03 07:28:39;;;;;;;3.75;1.30;;;10.20;99.90;;;;;;5092641;28;20307;-66
2022/01/03 07:31:05;;;;;;;5.05;1.30;;;10.20;99.90;;;;;;5093351;28;20200;-66
2022/01/03 07:33:30;;;;;;;8.57;1.60;;;10.20;99.90;;;;;;5092906;28;20330;-66
2022/01/03 07:35:56;;;;;;;4.32;1.27;;;10.20;99.90;;;;;;5093519;28;20613;-66
2022/01/03 07:38:21;;;;;;;3.28;1.60;;;10.20;99.90;;;;;;5092904;28;20548;-66
2022/01/03 07:40:47;;;;;;;5.97;1.52;;;10.20;99.90;;;;;;5093074;28;20176;-66
2022/01/03 07:43:12;;;;;;;5.72;1.17;;;10.20;99.90;;;;;;5093058;28;20184;-66
2022/01/03 07:45:38;;;;;;;7.22;1.60;;;10.20;99.90;;;;;;5093091;28;20194;-66
2022/01/03 07:48:04;;;;;;;7.13;1.52;;;10.10;99.90;;;;;;5092643;28;20671;-66
2022/01/03 07:50:29;;;;;;;6.97;1.65;;;10.20;99.90;;;;;;5092912;28;20172;-66
2022/01/03 07:52:58;;;;;;;8.38;2.45;;;10.10;99.90;;;;;;5092915;28;20172;-66
2022/01/03 07:55:24;;;;;;;8.55;1.50;;;10.20;99.90;;;;;;5092404;28;20588;-67
2022/01/03 07:57:50;;;;;;;8.20;1.70;;;10.20;99.90;;;;;;5093018;28;20725;-65
2022/01/03 08:00:16;;;;;;;11.25;1.70;;;10.20;99.90;;;;;;5092070;28;20222;-65
2022/01/03 08:02:43;;;;;;;4.80;1.40;;;10.10;99.90;;;;;;5093183;28;20180;-65
2022/01/03 08:05:12;;;;;;;8.15;1.88;;;10.10;99.90;;;;;;5092484;28;20547;-65
2022/01/03 08:07:38;;;;;;;10.05;2.08;;;10.10;99.90;;;;;;5092468;28;20196;-65
2022/01/03 08:10:05;;;;;;;6.07;2.42;;;10.00;99.90;;;;;;5091821;28;20244;-65
2022/01/03 08:12:31;;;;;;;7.90;2.78;;;10.00;99.90;;;;;;5092822;28;20179;-65
2022/01/03 08:14:57;;;;;;;7.80;2.13;;;10.00;99.90;;;;;;5092283;28;20267;-65
2022/01/03 08:17:23;;;;;;;6.28;1.67;;;10.00;99.90;;;;;;5092720;28;20268;-65
2022/01/03 08:19:48;;;;;;;10.15;2.00;;;10.00;99.90;;;;;;5091329;28;20187;-65
2022/01/03 08:22:14;;;;;;;7.22;1.60;;;10.00;99.90;;;;;;5092028;28;20634;-65
2022/01/03 08:24:39;;;;;;;10.20;2.90;;;9.90;99.90;;;;;;5092718;28;20212;-65
2022/01/03 08:27:05;;;;;;;6.70;1.60;;;9.80;99.90;;;;;;5091861;28;20229;-65
2022/01/03 08:29:31;;;;;;;6.28;1.50;;;9.80;99.90;;;;;;5092543;28;20208;-65
2022/01/03 08:31:56;;;;;;;7.10;1.60;;;9.70;99.90;;;;;;5091685;28;20214;-65
2022/01/03 08:34:22;;;;;;;5.43;1.45;;;9.70;99.90;;;;;;5092198;28;20267;-65
2022/01/03 08:36:47;;;;;;;7.47;1.60;;;9.70;99.90;;;;;;5075929;28;20567;-65
2022/01/03 08:39:13;;;;;;;8.25;1.40;;;9.70;99.90;;;;;;5085324;28;20180;-64
2022/01/03 08:41:39;;;;;;;4.03;1.65;;;9.70;99.90;;;;;;5090037;28;20475;-64
2022/01/03 08:44:05;;;;;;;7.65;1.40;;;9.70;99.90;;;;;;5091990;28;20172;-65
2022/01/03 08:46:31;;;;;;;7.82;2.00;;;9.70;99.90;;;;;;5091573;28;20187;-64
2022/01/03 08:48:56;;;;;;;6.47;1.58;;;9.70;99.90;;;;;;5092186;28;20223;-64
2022/01/03 08:51:22;;;;;;;12.02;1.90;;;9.70;99.90;;;;;;5092182;28;20191;-64
2022/01/03 08:53:47;;;;;;;8.27;2.10;;;9.80;99.90;;;;;;5090299;28;20263;-66
2022/01/03 08:56:13;;;;;;;9.27;2.03;;;9.80;99.90;;;;;;5090577;28;20524;-66
2022/01/03 08:58:39;;;;;;;4.82;1.83;;;9.80;99.90;;;;;;5091950;28;20581;-69
2022/01/03 09:01:04;;;;;;;6.43;2.15;;;9.80;99.90;;;;;;5090327;28;20457;-70
2022/01/03 09:03:30;;;;;;;8.70;1.42;;;9.90;99.90;;;;;;5091690;28;20176;-65
2022/01/03 09:05:56;;;;;;;7.03;1.50;;;9.90;99.90;;;;;;5091827;28;20183;-67
2022/01/03 09:08:23;;;;;;;6.93;1.42;;;9.90;99.90;;;;;;5091671;28;21467;-69
2022/01/03 09:10:50;;;;;;;6.35;2.10;;;9.90;99.90;;;;;;5091239;28;20175;-63
2022/01/03 09:13:16;;;;;;;7.10;1.30;;;9.90;99.90;;;;;;5091850;28;20182;-67
2022/01/03 09:15:44;;;;;;;7.38;2.05;;;9.90;99.90;;;;;;5091929;28;20271;-64
2022/01/03 09:18:14;;;;;;;4.88;1.23;;;9.90;99.90;;;;;;5091975;28;20543;-65
2022/01/03 09:20:40;;;;;;;6.13;1.58;;;9.90;99.90;;;;;;5091793;28;20270;-67
2022/01/03 09:23:28;;;;;;;6.05;1.63;;;9.90;99.90;;;;;;5091684;28;20677;-66
2022/01/03 09:28:56;;;;;;;5.78;1.63;;;10.00;99.90;;;;;;5091596;28;20733;-64
2022/01/03 09:31:29;;;;;;;7.57;1.50;;;10.00;99.90;;;;;;5091528;28;20191;-65
2022/01/03 09:33:57;;;;;;;6.10;1.60;;;10.10;99.90;;;;;;5091619;28;20180;-64
2022/01/03 09:36:24;;;;;;;8.93;1.70;;;10.10;99.90;;;;;;5091344;28;20184;-64
2022/01/03 09:38:51;;;;;;;5.65;1.40;;;10.10;99.90;;;;;;5091667;28;20176;-64
2022/01/03 09:41:28;;;;;;;5.20;1.58;;;10.10;99.90;;;;;;5090948;28;20329;-64
2022/01/03 09:43:59;;;;;;;3.58;1.52;;;10.10;99.90;;;;;;5094559;28;20211;-64
2022/01/03 09:46:28;;;;;;;4.97;1.67;;;10.10;99.90;;;;;;5095105;28;20714;-64
2022/01/03 09:48:55;;;;;;;7.53;1.58;;;10.20;99.90;;;;;;5095629;28;20218;-64
2022/01/03 09:51:23;;;;;;;6.15;1.92;;;10.20;99.90;;;;;;5095172;28;20245;-64
2022/01/03 09:53:50;;;;;;;4.82;1.85;;;10.20;99.90;;;;;;5094405;28;20650;-64
2022/01/03 09:56:17;;;;;;;6.05;1.33;;;10.20;99.90;;;;;;5087217;28;20188;-65
2022/01/03 09:58:42;;;;;;;5.75;1.95;;;10.20;99.90;;;;;;5093937;28;20232;-65
2022/01/03 10:01:09;;;;;;;4.40;1.70;;;10.20;99.90;;;;;;5094884;28;20686;-64
2022/01/03 10:03:35;;;;;;;7.13;1.83;;;10.30;99.90;;;;;;5095270;28;20184;-64
2022/01/03 10:06:01;;;;;;;5.13;1.33;;;10.30;99.90;;;;;;5094975;28;20176;-64
2022/01/03 10:08:27;;;;;;;8.75;1.77;;;10.30;99.90;;;;;;5094185;28;20779;-64
2022/01/03 10:10:53;;;;;;;8.13;1.80;;;10.30;99.90;;;;;;5094345;28;20173;-64
2022/01/03 10:13:19;;;;;;;5.07;1.48;;;10.40;99.90;;;;;;5094701;28;20188;-64
2022/01/03 10:15:44;;;;;;;3.28;1.35;;;10.40;99.90;;;;;;5094337;28;21487;-64
2022/01/03 10:18:20;;;;;;;6.82;1.70;;;10.40;99.90;;;;;;5095076;28;20180;-64
2022/01/03 10:20:47;;;;;;;4.82;1.27;;;10.40;99.90;;;;;;5094320;28;20187;-64
2022/01/03 10:23:15;;;;;;;7.80;1.63;;;10.40;99.90;;;;;;5094932;28;20635;-64
2022/01/03 10:25:43;;;;;;;4.80;1.42;;;10.40;99.90;;;;;;5094435;28;20184;-64
2022/01/03 10:28:09;;;;;;;10.13;1.95;;;10.40;99.90;;;;;;5094340;28;20196;-65
2022/01/03 10:30:45;;;;;;;12.65;2.30;;;10.60;99.90;;;;;;5094726;28;20183;-65
2022/01/03 10:33:16;;;;;;;4.82;1.67;;;10.60;99.90;;;;;;5093624;28;20229;-64
2022/01/03 10:35:44;;;;;;;6.60;1.60;;;10.70;99.90;;;;;;5094633;28;20188;-65
2022/01/03 10:38:28;;;;;;;5.70;1.58;;;10.70;99.90;;;;;;5094184;28;20199;-64
2022/01/03 10:41:14;;;;;;;6.05;1.40;;;10.70;99.90;;;;;;5093650;28;20183;-64
2022/01/03 10:43:41;;;;;;;7.78;1.90;;;10.60;99.90;;;;;;5094093;28;20205;-64
2022/01/03 10:46:25;;;;;;;4.00;2.08;;;10.60;99.90;;;;;;5094405;28;20258;-64
2022/01/03 10:48:53;;;;;;;6.47;1.75;;;10.60;99.90;;;;;;5094154;28;20212;-64
2022/01/03 10:51:28;;;;;;;5.05;1.40;;;10.70;99.90;;;;;;5094452;28;20192;-64
2022/01/03 10:53:55;;;;;;;7.63;1.52;;;10.70;99.90;;;;;;5092581;28;20214;-64
2022/01/03 10:56:32;;;;;;;3.67;1.15;;;10.70;99.90;;;;;;5093981;28;20213;-60
2022/01/03 10:59:22;;;;;;;72.72;36.65;;;10.70;99.90;;;;;;5092788;28;20267;-61
2022/01/03 11:01:58;;;;;;;100.88;48.85;;;11.00;99.90;;;;;;5093997;28;20176;-62
2022/01/03 11:04:54;;;;;;;47.35;20.95;;;11.80;99.90;;;;;;5093919;28;20180;-62
2022/01/03 11:13:07;;;;;;;6.60;1.33;;;13.30;99.90;;;;;;5093680;28;20301;-61
2022/01/03 11:15:34;;;;;;;5.63;1.23;;;12.60;99.90;;;;;;5093661;28;20184;-61
2022/01/03 11:18:18;;;;;;;4.20;1.27;;;12.20;99.90;;;;;;5093256;28;20670;-61
2022/01/03 11:20:46;;;;;;;4.88;1.60;;;11.80;99.90;;;;;;5093828;28;20255;-61
2022/01/03 11:23:22;;;;;;;6.40;2.03;;;11.50;99.90;;;;;;5092195;28;20188;-61
2022/01/03 11:25:49;;;;;;;5.05;1.48;;;11.40;99.90;;;;;;5093705;28;20168;-61
2022/01/03 11:28:15;;;;;;;5.88;1.60;;;11.30;99.90;;;;;;5091866;28;20321;-61
2022/01/03 11:30:43;;;;;;;6.82;1.58;;;11.30;99.90;;;;;;5092964;28;20536;-61
2022/01/03 11:33:10;;;;;;;5.50;1.77;;;11.30;99.90;;;;;;5093177;28;20643;-61
2022/01/03 11:35:36;;;;;;;7.85;1.88;;;11.30;99.90;;;;;;5093008;28;20188;-61
2022/01/03 11:38:06;;;;;;;7.75;1.70;;;11.30;99.90;;;;;;5092683;28;20188;-61
2022/01/03 11:40:32;;;;;;;2.53;1.50;;;11.30;99.90;;;;;;5092582;28;20251;-60
2022/01/03 11:42:59;;;;;;;3.25;1.83;;;11.30;99.90;;;;;;5092818;28;20251;-60
2022/01/03 11:45:25;;;;;;;7.25;1.70;;;11.30;99.90;;;;;;5092805;28;20537;-60
2022/01/03 11:47:51;;;;;;;5.90;1.65;;;11.40;99.90;;;;;;5092748;28;20655;-61
2022/01/03 11:50:17;;;;;;;3.80;1.30;;;11.40;99.90;;;;;;5092631;28;20212;-60
2022/01/03 11:52:44;;;;;;;7.18;1.52;;;11.40;99.90;;;;;;5092769;28;20211;-61
2022/01/03 11:55:11;;;;;;;5.53;1.70;;;11.40;99.90;;;;;;5092505;28;20187;-61
2022/01/03 12:06:02;;;;;;;4.05;1.10;;;11.50;99.90;;;;;;5092265;28;20206;-60
2022/01/03 12:08:30;;;;;;;3.53;1.27;;;11.60;99.90;;;;;;5091538;28;20203;-61
2022/01/03 12:11:00;;;;;;;5.85;1.80;;;11.60;99.90;;;;;;5091827;28;20259;-61
2022/01/03 12:14:03;;;;;;;5.68;1.58;;;11.60;99.90;;;;;;5091613;28;20237;-61
2022/01/03 12:16:48;;;;;;;7.75;1.70;;;11.60;99.90;;;;;;5092361;28;20194;-61
2022/01/03 12:19:35;;;;;;;4.15;1.58;;;11.60;99.90;;;;;;5089694;28;20703;-61
2022/01/03 12:22:13;;;;;;;5.88;1.85;;;11.60;99.90;;;;;;5089350;28;20183;-61
2022/01/03 12:24:41;;;;;;;5.70;1.38;;;11.60;99.90;;;;;;5083658;28;20191;-61
2022/01/03 12:27:16;;;;;;;8.25;1.70;;;11.60;99.90;;;;;;5083393;28;20279;-61
2022/01/03 12:29:54;;;;;;;4.63;1.20;;;11.60;99.90;;;;;;5083394;28;20212;-61
2022/01/03 12:32:24;;;;;;;7.80;1.60;;;11.60;99.90;;;;;;5090659;28;20180;-62
2022/01/03 12:35:17;;;;;;;4.22;1.60;;;11.50;99.90;;;;;;5091603;28;20203;-61
2022/01/03 12:37:47;;;;;;;3.30;1.38;;;11.50;99.90;;;;;;5092033;28;20168;-61
2022/01/03 12:40:27;;;;;;;4.45;1.65;;;11.60;99.90;;;;;;5091765;28;20184;-61
2022/01/03 12:43:05;;;;;;;4.40;1.42;;;11.60;99.90;;;;;;5091959;28;20222;-61
2022/01/03 12:45:34;;;;;;;7.85;2.58;;;11.60;99.90;;;;;;5071614;28;20578;-61
2022/01/03 12:48:11;;;;;;;6.47;1.85;;;11.60;99.90;;;;;;5091734;28;20192;-61
2022/01/03 12:50:50;;;;;;;7.85;1.88;;;11.70;99.90;;;;;;5091924;28;20665;-61
2022/01/03 12:53:28;;;;;;;3.67;1.40;;;11.70;99.90;;;;;;5081522;28;20533;-61
2022/01/03 12:56:02;;;;;;;4.13;1.10;;;11.70;99.90;;;;;;5087021;28;20176;-61
2022/01/03 12:58:28;;;;;;;4.47;1.40;;;11.70;99.90;;;;;;5091643;28;20706;-61
2022/01/03 13:01:15;;;;;;;3.20;1.23;;;11.70;99.90;;;;;;5091715;28;20176;-61
2022/01/03 13:03:49;;;;;;;5.70;1.77;;;11.80;99.90;;;;;;5091965;28;20168;-61
2022/01/03 13:06:34;;;;;;;4.43;1.20;;;11.80;99.90;;;;;;5075123;28;20172;-61
2022/01/03 13:09:25;;;;;;;4.55;1.42;;;11.80;99.90;;;;;;5091220;28;20219;-61
2022/01/03 13:11:50;;;;;;;10.82;3.25;;;11.80;99.90;;;;;;5092068;28;20176;-61
2022/01/03 13:14:20;;;;;;;3.75;1.40;;;11.80;99.90;;;;;;5091354;28;20191;-61
2022/01/03 13:16:47;;;;;;;5.30;1.52;;;11.80;99.90;;;;;;5093151;28;20546;-61